sensor_id;sensor_type;location;lat;lon;timestamp;P1;durP1;ratioP1;P2;durP2;ratioP2
19687;SDS011;9993;52.008;4.732;2022-12-16T00:01:54;27.80;;;17.93;;
19687;SDS011;9993;52.008;4.732;2022-12-16T00:04:19;25.57;;;14.27;;
19687;SDS011;9993;52.008;4.732;2022-12-16T00:06:44;21.33;;;12.00;;
19687;SDS011;9993;52.008;4.732;2022-12-16T00:09:09;19.77;;;12.83;;
19687;SDS011;9993;52.008;4.732;2022-12-16T00:11:35;14.87;;;9.67;;
19687;SDS011;9993;52.008;4.732;2022-12-16T00:14:00;18.40;;;10.73;;
19687;SDS011;9993;52.008;4.732;2022-12-16T00:16:25;15.13;;;10.27;;
19687;SDS011;9993;52.008;4.732;2022-12-16T00:18:50;18.27;;;11.43;;
19687;SDS011;9993;52.008;4.732;2022-12-16T00:21:16;17.53;;;10.40;;
19687;SDS011;9993;52.008;4.732;2022-12-16T00:23:44;15.83;;;9.60;;
19687;SDS011;9993;52.008;4.732;2022-12-16T00:26:10;18.77;;;9.00;;
19687;SDS011;9993;52.008;4.732;2022-12-16T00:28:36;15.83;;;9.77;;
19687;SDS011;9993;52.008;4.732;2022-12-16T00:31:01;10.03;;;6.57;;
19687;SDS011;9993;52.008;4.732;2022-12-16T00:33:26;14.97;;;9.13;;
19687;SDS011;9993;52.008;4.732;2022-12-16T00:35:52;11.27;;;8.63;;
19687;SDS011;9993;52.008;4.732;2022-12-16T00:38:17;9.77;;;8.33;;
19687;SDS011;9993;52.008;4.732;2022-12-16T00:40:43;13.57;;;7.43;;
19687;SDS011;9993;52.008;4.732;2022-12-16T00:43:08;11.70;;;8.57;;
19687;SDS011;9993;52.008;4.732;2022-12-16T00:45:34;8.20;;;5.43;;
19687;SDS011;9993;52.008;4.732;2022-12-16T00:47:59;10.23;;;7.67;;
19687;SDS011;9993;52.008;4.732;2022-12-16T00:50:24;14.67;;;8.73;;
19687;SDS011;9993;52.008;4.732;2022-12-16T00:52:49;11.03;;;7.80;;
19687;SDS011;9993;52.008;4.732;2022-12-16T00:55:15;12.00;;;8.77;;
19687;SDS011;9993;52.008;4.732;2022-12-16T00:57:40;9.63;;;6.67;;
19687;SDS011;9993;52.008;4.732;2022-12-16T01:00:06;14.33;;;8.00;;
19687;SDS011;9993;52.008;4.732;2022-12-16T01:02:33;13.60;;;7.17;;
19687;SDS011;9993;52.008;4.732;2022-12-16T01:04:58;11.80;;;7.70;;
19687;SDS011;9993;52.008;4.732;2022-12-16T01:07:23;13.50;;;8.40;;
19687;SDS011;9993;52.008;4.732;2022-12-16T01:09:49;10.37;;;6.63;;
19687;SDS011;9993;52.008;4.732;2022-12-16T01:12:14;9.27;;;4.80;;
19687;SDS011;9993;52.008;4.732;2022-12-16T01:14:39;8.50;;;5.77;;
19687;SDS011;9993;52.008;4.732;2022-12-16T01:17:04;7.70;;;5.00;;
19687;SDS011;9993;52.008;4.732;2022-12-16T01:19:29;10.87;;;5.47;;
19687;SDS011;9993;52.008;4.732;2022-12-16T01:21:55;11.33;;;5.73;;
19687;SDS011;9993;52.008;4.732;2022-12-16T01:24:20;7.33;;;5.23;;
19687;SDS011;9993;52.008;4.732;2022-12-16T01:26:45;10.03;;;6.13;;
19687;SDS011;9993;52.008;4.732;2022-12-16T01:29:11;12.17;;;6.37;;
19687;SDS011;9993;52.008;4.732;2022-12-16T01:31:36;8.13;;;6.00;;
19687;SDS011;9993;52.008;4.732;2022-12-16T01:34:02;7.23;;;5.83;;
19687;SDS011;9993;52.008;4.732;2022-12-16T01:36:27;9.17;;;5.87;;
19687;SDS011;9993;52.008;4.732;2022-12-16T01:38:52;7.87;;;5.43;;
19687;SDS011;9993;52.008;4.732;2022-12-16T01:41:18;10.30;;;5.93;;
19687;SDS011;9993;52.008;4.732;2022-12-16T01:43:44;7.60;;;5.67;;
19687;SDS011;9993;52.008;4.732;2022-12-16T01:48:39;10.47;;;5.77;;
19687;SDS011;9993;52.008;4.732;2022-12-16T01:51:27;7.23;;;5.80;;
19687;SDS011;9993;52.008;4.732;2022-12-16T01:53:52;9.50;;;5.63;;
19687;SDS011;9993;52.008;4.732;2022-12-16T01:56:18;8.03;;;5.97;;
19687;SDS011;9993;52.008;4.732;2022-12-16T01:58:44;8.27;;;5.80;;
19687;SDS011;9993;52.008;4.732;2022-12-16T02:01:10;10.60;;;5.53;;
19687;SDS011;9993;52.008;4.732;2022-12-16T02:03:36;7.93;;;5.50;;
19687;SDS011;9993;52.008;4.732;2022-12-16T02:06:02;11.63;;;5.93;;
19687;SDS011;9993;52.008;4.732;2022-12-16T02:08:28;9.30;;;5.40;;
19687;SDS011;9993;52.008;4.732;2022-12-16T02:31:42;9.17;;;5.20;;
19687;SDS011;9993;52.008;4.732;2022-12-16T02:40:10;10.37;;;5.37;;
19687;SDS011;9993;52.008;4.732;2022-12-16T02:42:59;10.00;;;6.20;;
19687;SDS011;9993;52.008;4.732;2022-12-16T02:45:27;8.63;;;5.40;;
19687;SDS011;9993;52.008;4.732;2022-12-16T02:47:53;9.03;;;4.80;;
19687;SDS011;9993;52.008;4.732;2022-12-16T02:50:31;9.53;;;3.80;;
19687;SDS011;9993;52.008;4.732;2022-12-16T02:52:57;8.90;;;4.60;;
19687;SDS011;9993;52.008;4.732;2022-12-16T02:55:26;8.50;;;5.13;;
19687;SDS011;9993;52.008;4.732;2022-12-16T03:00:25;15.83;;;5.90;;
19687;SDS011;9993;52.008;4.732;2022-12-16T03:02:56;9.80;;;4.97;;
19687;SDS011;9993;52.008;4.732;2022-12-16T03:05:35;6.33;;;4.13;;
19687;SDS011;9993;52.008;4.732;2022-12-16T03:08:03;8.33;;;5.03;;
19687;SDS011;9993;52.008;4.732;2022-12-16T03:10:31;11.17;;;5.37;;
19687;SDS011;9993;52.008;4.732;2022-12-16T03:12:59;7.93;;;5.23;;
19687;SDS011;9993;52.008;4.732;2022-12-16T03:15:25;7.80;;;4.53;;
19687;SDS011;9993;52.008;4.732;2022-12-16T03:17:52;11.50;;;5.13;;
19687;SDS011;9993;52.008;4.732;2022-12-16T03:21:02;12.07;;;4.90;;
19687;SDS011;9993;52.008;4.732;2022-12-16T03:23:09;5.47;;;3.57;;
19687;SDS011;9993;52.008;4.732;2022-12-16T03:25:36;6.90;;;4.63;;
19687;SDS011;9993;52.008;4.732;2022-12-16T03:28:05;6.87;;;4.37;;
19687;SDS011;9993;52.008;4.732;2022-12-16T03:30:33;10.77;;;4.77;;
19687;SDS011;9993;52.008;4.732;2022-12-16T03:33:01;6.07;;;4.10;;
19687;SDS011;9993;52.008;4.732;2022-12-16T03:38:17;8.57;;;3.63;;
19687;SDS011;9993;52.008;4.732;2022-12-16T03:40:43;5.43;;;3.47;;
19687;SDS011;9993;52.008;4.732;2022-12-16T03:43:09;4.70;;;3.20;;
19687;SDS011;9993;52.008;4.732;2022-12-16T03:45:39;6.30;;;3.60;;
19687;SDS011;9993;52.008;4.732;2022-12-16T03:48:06;11.60;;;4.10;;
19687;SDS011;9993;52.008;4.732;2022-12-16T03:50:33;6.90;;;3.00;;
19687;SDS011;9993;52.008;4.732;2022-12-16T03:52:59;9.23;;;3.47;;
19687;SDS011;9993;52.008;4.732;2022-12-16T03:55:24;9.30;;;3.37;;
19687;SDS011;9993;52.008;4.732;2022-12-16T03:57:49;6.00;;;2.97;;
19687;SDS011;9993;52.008;4.732;2022-12-16T04:00:14;9.37;;;3.80;;
19687;SDS011;9993;52.008;4.732;2022-12-16T04:02:40;10.17;;;3.40;;
19687;SDS011;9993;52.008;4.732;2022-12-16T04:05:05;8.80;;;3.40;;
19687;SDS011;9993;52.008;4.732;2022-12-16T04:07:30;5.23;;;3.17;;
19687;SDS011;9993;52.008;4.732;2022-12-16T04:09:56;7.27;;;4.10;;
19687;SDS011;9993;52.008;4.732;2022-12-16T04:12:21;7.70;;;3.33;;
19687;SDS011;9993;52.008;4.732;2022-12-16T04:15:05;3.13;;;2.83;;
19687;SDS011;9993;52.008;4.732;2022-12-16T04:17:49;8.07;;;3.30;;
19687;SDS011;9993;52.008;4.732;2022-12-16T04:20:35;4.63;;;2.50;;
19687;SDS011;9993;52.008;4.732;2022-12-16T04:23:43;8.77;;;2.87;;
19687;SDS011;9993;52.008;4.732;2022-12-16T04:26:29;7.00;;;3.47;;
19687;SDS011;9993;52.008;4.732;2022-12-16T04:28:54;4.83;;;3.23;;
19687;SDS011;9993;52.008;4.732;2022-12-16T04:31:19;7.07;;;3.33;;
19687;SDS011;9993;52.008;4.732;2022-12-16T04:33:44;7.27;;;3.30;;
19687;SDS011;9993;52.008;4.732;2022-12-16T04:36:45;4.03;;;3.63;;
19687;SDS011;9993;52.008;4.732;2022-12-16T04:39:29;6.03;;;3.37;;
19687;SDS011;9993;52.008;4.732;2022-12-16T04:42:12;5.83;;;3.23;;
19687;SDS011;9993;52.008;4.732;2022-12-16T04:44:56;3.97;;;3.20;;
19687;SDS011;9993;52.008;4.732;2022-12-16T04:47:40;6.80;;;2.83;;
19687;SDS011;9993;52.008;4.732;2022-12-16T04:50:24;8.63;;;3.33;;
19687;SDS011;9993;52.008;4.732;2022-12-16T04:53:08;3.70;;;2.97;;
19687;SDS011;9993;52.008;4.732;2022-12-16T04:55:52;4.57;;;2.47;;
19687;SDS011;9993;52.008;4.732;2022-12-16T04:58:36;5.97;;;3.40;;
19687;SDS011;9993;52.008;4.732;2022-12-16T05:01:20;3.77;;;3.37;;
19687;SDS011;9993;52.008;4.732;2022-12-16T05:04:04;7.90;;;3.80;;
19687;SDS011;9993;52.008;4.732;2022-12-16T05:06:48;11.13;;;3.53;;
19687;SDS011;9993;52.008;4.732;2022-12-16T05:09:32;5.87;;;2.97;;
19687;SDS011;9993;52.008;4.732;2022-12-16T05:12:16;6.40;;;3.10;;
19687;SDS011;9993;52.008;4.732;2022-12-16T05:15:00;3.67;;;2.33;;
19687;SDS011;9993;52.008;4.732;2022-12-16T05:17:44;6.57;;;2.73;;
19687;SDS011;9993;52.008;4.732;2022-12-16T05:20:28;6.53;;;2.47;;
19687;SDS011;9993;52.008;4.732;2022-12-16T05:23:12;2.50;;;2.30;;
19687;SDS011;9993;52.008;4.732;2022-12-16T05:25:56;6.17;;;3.27;;
19687;SDS011;9993;52.008;4.732;2022-12-16T05:28:40;9.50;;;3.23;;
19687;SDS011;9993;52.008;4.732;2022-12-16T05:31:24;7.63;;;3.23;;
19687;SDS011;9993;52.008;4.732;2022-12-16T05:34:08;4.03;;;3.00;;
19687;SDS011;9993;52.008;4.732;2022-12-16T05:36:52;6.27;;;3.23;;
19687;SDS011;9993;52.008;4.732;2022-12-16T05:39:36;6.87;;;3.47;;
19687;SDS011;9993;52.008;4.732;2022-12-16T05:42:20;6.13;;;3.10;;
19687;SDS011;9993;52.008;4.732;2022-12-16T05:45:04;4.97;;;3.47;;
19687;SDS011;9993;52.008;4.732;2022-12-16T05:47:48;3.13;;;2.73;;
19687;SDS011;9993;52.008;4.732;2022-12-16T05:50:32;8.33;;;3.30;;
19687;SDS011;9993;52.008;4.732;2022-12-16T05:53:16;5.47;;;3.40;;
19687;SDS011;9993;52.008;4.732;2022-12-16T05:56:00;6.17;;;3.37;;
19687;SDS011;9993;52.008;4.732;2022-12-16T05:58:44;3.47;;;3.10;;
19687;SDS011;9993;52.008;4.732;2022-12-16T06:01:28;2.93;;;2.73;;
19687;SDS011;9993;52.008;4.732;2022-12-16T06:04:12;3.20;;;2.90;;
19687;SDS011;9993;52.008;4.732;2022-12-16T06:06:56;4.63;;;3.27;;
19687;SDS011;9993;52.008;4.732;2022-12-16T06:09:40;6.23;;;2.67;;
19687;SDS011;9993;52.008;4.732;2022-12-16T06:12:24;2.60;;;2.40;;
19687;SDS011;9993;52.008;4.732;2022-12-16T06:15:12;3.50;;;3.20;;
19687;SDS011;9993;52.008;4.732;2022-12-16T06:17:56;3.27;;;2.97;;
19687;SDS011;9993;52.008;4.732;2022-12-16T06:20:40;6.60;;;3.73;;
19687;SDS011;9993;52.008;4.732;2022-12-16T06:23:24;4.30;;;2.53;;
19687;SDS011;9993;52.008;4.732;2022-12-16T06:26:08;6.80;;;3.63;;
19687;SDS011;9993;52.008;4.732;2022-12-16T06:28:52;4.73;;;3.40;;
19687;SDS011;9993;52.008;4.732;2022-12-16T06:31:36;6.17;;;2.73;;
19687;SDS011;9993;52.008;4.732;2022-12-16T06:34:20;7.00;;;3.40;;
19687;SDS011;9993;52.008;4.732;2022-12-16T06:37:04;4.20;;;3.80;;
19687;SDS011;9993;52.008;4.732;2022-12-16T06:39:48;6.53;;;3.73;;
19687;SDS011;9993;52.008;4.732;2022-12-16T06:42:32;5.43;;;2.97;;
19687;SDS011;9993;52.008;4.732;2022-12-16T06:45:16;3.97;;;3.40;;
19687;SDS011;9993;52.008;4.732;2022-12-16T06:48:00;7.07;;;4.13;;
19687;SDS011;9993;52.008;4.732;2022-12-16T06:50:44;8.53;;;3.73;;
19687;SDS011;9993;52.008;4.732;2022-12-16T06:53:28;6.37;;;3.63;;
19687;SDS011;9993;52.008;4.732;2022-12-16T06:56:15;5.40;;;3.80;;
19687;SDS011;9993;52.008;4.732;2022-12-16T06:58:59;4.33;;;3.57;;
19687;SDS011;9993;52.008;4.732;2022-12-16T07:01:43;6.63;;;4.00;;
19687;SDS011;9993;52.008;4.732;2022-12-16T07:04:27;7.70;;;5.00;;
19687;SDS011;9993;52.008;4.732;2022-12-16T07:07:11;5.90;;;4.57;;
19687;SDS011;9993;52.008;4.732;2022-12-16T07:09:55;10.87;;;4.60;;
19687;SDS011;9993;52.008;4.732;2022-12-16T07:12:39;4.30;;;3.90;;
19687;SDS011;9993;52.008;4.732;2022-12-16T07:15:23;7.17;;;4.57;;
19687;SDS011;9993;52.008;4.732;2022-12-16T07:18:07;6.50;;;4.73;;
19687;SDS011;9993;52.008;4.732;2022-12-16T07:20:51;8.80;;;4.40;;
19687;SDS011;9993;52.008;4.732;2022-12-16T07:23:35;6.73;;;4.80;;
19687;SDS011;9993;52.008;4.732;2022-12-16T07:26:19;8.07;;;4.60;;
19687;SDS011;9993;52.008;4.732;2022-12-16T07:29:03;8.60;;;4.37;;
19687;SDS011;9993;52.008;4.732;2022-12-16T07:31:47;11.10;;;6.20;;
19687;SDS011;9993;52.008;4.732;2022-12-16T07:34:31;8.00;;;5.43;;
19687;SDS011;9993;52.008;4.732;2022-12-16T07:37:15;7.33;;;4.83;;
19687;SDS011;9993;52.008;4.732;2022-12-16T07:39:59;6.67;;;4.33;;
19687;SDS011;9993;52.008;4.732;2022-12-16T07:42:46;15.70;;;4.43;;
19687;SDS011;9993;52.008;4.732;2022-12-16T07:45:50;8.03;;;4.50;;
19687;SDS011;9993;52.008;4.732;2022-12-16T07:48:34;7.13;;;4.67;;
19687;SDS011;9993;52.008;4.732;2022-12-16T07:51:17;7.33;;;5.43;;
19687;SDS011;9993;52.008;4.732;2022-12-16T07:54:01;8.67;;;5.60;;
19687;SDS011;9993;52.008;4.732;2022-12-16T07:56:45;8.97;;;5.10;;
19687;SDS011;9993;52.008;4.732;2022-12-16T07:59:29;8.53;;;4.97;;
19687;SDS011;9993;52.008;4.732;2022-12-16T08:02:13;8.80;;;4.80;;
19687;SDS011;9993;52.008;4.732;2022-12-16T08:04:57;6.90;;;3.97;;
19687;SDS011;9993;52.008;4.732;2022-12-16T08:07:41;8.43;;;5.13;;
19687;SDS011;9993;52.008;4.732;2022-12-16T08:10:25;6.20;;;4.47;;
19687;SDS011;9993;52.008;4.732;2022-12-16T08:13:09;9.20;;;5.37;;
19687;SDS011;9993;52.008;4.732;2022-12-16T08:15:53;8.60;;;4.83;;
19687;SDS011;9993;52.008;4.732;2022-12-16T08:18:37;10.87;;;4.93;;
19687;SDS011;9993;52.008;4.732;2022-12-16T08:21:21;11.30;;;5.00;;
19687;SDS011;9993;52.008;4.732;2022-12-16T08:24:05;11.43;;;4.83;;
19687;SDS011;9993;52.008;4.732;2022-12-16T08:26:49;8.10;;;5.17;;
19687;SDS011;9993;52.008;4.732;2022-12-16T08:29:33;8.30;;;5.70;;
19687;SDS011;9993;52.008;4.732;2022-12-16T08:32:17;11.27;;;5.63;;
19687;SDS011;9993;52.008;4.732;2022-12-16T08:35:01;7.97;;;6.07;;
19687;SDS011;9993;52.008;4.732;2022-12-16T08:37:45;12.17;;;5.47;;
19687;SDS011;9993;52.008;4.732;2022-12-16T08:40:29;12.10;;;5.50;;
19687;SDS011;9993;52.008;4.732;2022-12-16T08:43:13;8.60;;;6.00;;
19687;SDS011;9993;52.008;4.732;2022-12-16T08:45:57;12.60;;;6.13;;
19687;SDS011;9993;52.008;4.732;2022-12-16T08:48:41;11.17;;;5.57;;
19687;SDS011;9993;52.008;4.732;2022-12-16T08:51:25;5.00;;;4.50;;
19687;SDS011;9993;52.008;4.732;2022-12-16T08:54:09;11.53;;;5.80;;
19687;SDS011;9993;52.008;4.732;2022-12-16T08:56:53;9.17;;;5.47;;
19687;SDS011;9993;52.008;4.732;2022-12-16T08:59:37;10.07;;;5.27;;
19687;SDS011;9993;52.008;4.732;2022-12-16T09:02:21;6.93;;;5.77;;
19687;SDS011;9993;52.008;4.732;2022-12-16T09:05:05;11.13;;;5.80;;
19687;SDS011;9993;52.008;4.732;2022-12-16T09:07:49;8.80;;;4.80;;
19687;SDS011;9993;52.008;4.732;2022-12-16T09:10:33;16.20;;;5.20;;
19687;SDS011;9993;52.008;4.732;2022-12-16T09:13:17;8.60;;;5.90;;
19687;SDS011;9993;52.008;4.732;2022-12-16T09:16:01;13.90;;;5.60;;
19687;SDS011;9993;52.008;4.732;2022-12-16T09:18:45;11.27;;;6.07;;
19687;SDS011;9993;52.008;4.732;2022-12-16T09:21:37;8.20;;;5.83;;
19687;SDS011;9993;52.008;4.732;2022-12-16T09:24:20;8.70;;;7.33;;
19687;SDS011;9993;52.008;4.732;2022-12-16T09:27:04;13.53;;;6.87;;
19687;SDS011;9993;52.008;4.732;2022-12-16T09:29:48;8.90;;;5.80;;
19687;SDS011;9993;52.008;4.732;2022-12-16T09:32:32;9.90;;;5.97;;
19687;SDS011;9993;52.008;4.732;2022-12-16T09:35:16;11.90;;;5.57;;
19687;SDS011;9993;52.008;4.732;2022-12-16T09:38:00;10.10;;;6.10;;
19687;SDS011;9993;52.008;4.732;2022-12-16T09:40:44;10.87;;;6.23;;
19687;SDS011;9993;52.008;4.732;2022-12-16T09:52:24;14.27;;;6.67;;
19687;SDS011;9993;52.008;4.732;2022-12-16T09:55:16;12.13;;;7.03;;
19687;SDS011;9993;52.008;4.732;2022-12-16T09:58:03;11.53;;;5.93;;
19687;SDS011;9993;52.008;4.732;2022-12-16T10:00:47;13.00;;;6.63;;
19687;SDS011;9993;52.008;4.732;2022-12-16T10:03:37;12.97;;;6.20;;
19687;SDS011;9993;52.008;4.732;2022-12-16T10:09:19;10.27;;;5.37;;
19687;SDS011;9993;52.008;4.732;2022-12-16T10:12:20;5.97;;;5.30;;
19687;SDS011;9993;52.008;4.732;2022-12-16T10:15:19;6.47;;;5.00;;
19687;SDS011;9993;52.008;4.732;2022-12-16T10:18:14;8.50;;;4.40;;
19687;SDS011;9993;52.008;4.732;2022-12-16T10:21:00;3.97;;;3.57;;
19687;SDS011;9993;52.008;4.732;2022-12-16T10:23:51;9.00;;;4.20;;
19687;SDS011;9993;52.008;4.732;2022-12-16T10:29:30;4.80;;;4.37;;
19687;SDS011;9993;52.008;4.732;2022-12-16T10:32:23;5.07;;;4.13;;
19687;SDS011;9993;52.008;4.732;2022-12-16T10:35:18;5.33;;;3.90;;
19687;SDS011;9993;52.008;4.732;2022-12-16T10:38:03;6.13;;;4.00;;
19687;SDS011;9993;52.008;4.732;2022-12-16T10:40:48;4.90;;;4.07;;
19687;SDS011;9993;52.008;4.732;2022-12-16T10:43:33;6.27;;;4.30;;
19687;SDS011;9993;52.008;4.732;2022-12-16T10:46:19;5.80;;;3.33;;
19687;SDS011;9993;52.008;4.732;2022-12-16T10:49:04;6.20;;;3.73;;
19687;SDS011;9993;52.008;4.732;2022-12-16T10:51:48;3.60;;;3.33;;
19687;SDS011;9993;52.008;4.732;2022-12-16T10:54:34;9.87;;;4.77;;
19687;SDS011;9993;52.008;4.732;2022-12-16T11:00:42;9.97;;;4.13;;
19687;SDS011;9993;52.008;4.732;2022-12-16T11:03:27;4.17;;;3.30;;
19687;SDS011;9993;52.008;4.732;2022-12-16T11:06:14;4.13;;;3.23;;
19687;SDS011;9993;52.008;4.732;2022-12-16T11:09:25;7.40;;;3.93;;
19687;SDS011;9993;52.008;4.732;2022-12-16T11:12:23;5.00;;;4.13;;
19687;SDS011;9993;52.008;4.732;2022-12-16T11:15:29;3.97;;;3.53;;
19687;SDS011;9993;52.008;4.732;2022-12-16T11:18:15;9.37;;;4.50;;
19687;SDS011;9993;52.008;4.732;2022-12-16T11:21:03;5.20;;;3.90;;
19687;SDS011;9993;52.008;4.732;2022-12-16T11:23:53;4.63;;;4.03;;
19687;SDS011;9993;52.008;4.732;2022-12-16T11:26:53;6.83;;;3.87;;
19687;SDS011;9993;52.008;4.732;2022-12-16T11:29:50;5.43;;;4.00;;
19687;SDS011;9993;52.008;4.732;2022-12-16T11:32:34;7.53;;;4.30;;
19687;SDS011;9993;52.008;4.732;2022-12-16T11:35:20;6.57;;;4.23;;
19687;SDS011;9993;52.008;4.732;2022-12-16T11:38:07;6.10;;;4.03;;
19687;SDS011;9993;52.008;4.732;2022-12-16T11:40:53;5.63;;;3.93;;
19687;SDS011;9993;52.008;4.732;2022-12-16T11:43:37;4.30;;;3.90;;
19687;SDS011;9993;52.008;4.732;2022-12-16T11:46:26;5.77;;;4.00;;
19687;SDS011;9993;52.008;4.732;2022-12-16T11:49:18;5.70;;;4.33;;
19687;SDS011;9993;52.008;4.732;2022-12-16T11:52:04;8.37;;;4.57;;
19687;SDS011;9993;52.008;4.732;2022-12-16T11:54:54;6.43;;;3.57;;
19687;SDS011;9993;52.008;4.732;2022-12-16T11:57:46;6.40;;;4.17;;
19687;SDS011;9993;52.008;4.732;2022-12-16T12:00:32;4.37;;;3.87;;
19687;SDS011;9993;52.008;4.732;2022-12-16T12:03:18;4.20;;;3.80;;
19687;SDS011;9993;52.008;4.732;2022-12-16T12:11:48;6.40;;;4.30;;
19687;SDS011;9993;52.008;4.732;2022-12-16T12:14:46;5.13;;;4.23;;
19687;SDS011;9993;52.008;4.732;2022-12-16T12:26:42;4.87;;;4.47;;
19687;SDS011;9993;52.008;4.732;2022-12-16T12:29:31;6.93;;;4.70;;
19687;SDS011;9993;52.008;4.732;2022-12-16T12:32:28;5.87;;;5.07;;
19687;SDS011;9993;52.008;4.732;2022-12-16T12:38:18;6.30;;;4.13;;
19687;SDS011;9993;52.008;4.732;2022-12-16T12:44:20;9.27;;;3.87;;
19687;SDS011;9993;52.008;4.732;2022-12-16T12:47:07;4.23;;;3.40;;
19687;SDS011;9993;52.008;4.732;2022-12-16T12:50:04;3.50;;;3.20;;
19687;SDS011;9993;52.008;4.732;2022-12-16T12:56:37;4.27;;;3.47;;
19687;SDS011;9993;52.008;4.732;2022-12-16T12:59:01;6.03;;;4.20;;
19687;SDS011;9993;52.008;4.732;2022-12-16T13:01:46;5.17;;;3.73;;
19687;SDS011;9993;52.008;4.732;2022-12-16T13:04:30;4.70;;;3.83;;
19687;SDS011;9993;52.008;4.732;2022-12-16T13:07:15;5.13;;;3.53;;
19687;SDS011;9993;52.008;4.732;2022-12-16T13:15:57;4.67;;;3.87;;
19687;SDS011;9993;52.008;4.732;2022-12-16T13:18:41;4.80;;;4.03;;
19687;SDS011;9993;52.008;4.732;2022-12-16T13:24:26;4.23;;;3.83;;
19687;SDS011;9993;52.008;4.732;2022-12-16T13:27:12;6.30;;;4.10;;
19687;SDS011;9993;52.008;4.732;2022-12-16T13:30:05;5.27;;;4.03;;
19687;SDS011;9993;52.008;4.732;2022-12-16T13:33:00;8.00;;;3.80;;
19687;SDS011;9993;52.008;4.732;2022-12-16T13:35:57;5.10;;;3.70;;
19687;SDS011;9993;52.008;4.732;2022-12-16T13:38:45;5.73;;;4.20;;
19687;SDS011;9993;52.008;4.732;2022-12-16T13:44:52;4.03;;;3.60;;
19687;SDS011;9993;52.008;4.732;2022-12-16T13:47:31;4.03;;;3.50;;
19687;SDS011;9993;52.008;4.732;2022-12-16T13:50:33;4.50;;;3.83;;
19687;SDS011;9993;52.008;4.732;2022-12-16T13:53:18;3.73;;;3.33;;
19687;SDS011;9993;52.008;4.732;2022-12-16T13:56:03;6.83;;;4.17;;
19687;SDS011;9993;52.008;4.732;2022-12-16T13:58:51;6.37;;;3.67;;
19687;SDS011;9993;52.008;4.732;2022-12-16T14:04:24;4.90;;;3.57;;
19687;SDS011;9993;52.008;4.732;2022-12-16T14:07:12;5.93;;;3.77;;
19687;SDS011;9993;52.008;4.732;2022-12-16T14:09:56;5.67;;;3.40;;
19687;SDS011;9993;52.008;4.732;2022-12-16T14:12:55;3.43;;;3.13;;
19687;SDS011;9993;52.008;4.732;2022-12-16T14:21:47;5.27;;;3.87;;
19687;SDS011;9993;52.008;4.732;2022-12-16T14:24:33;5.67;;;3.87;;
19687;SDS011;9993;52.008;4.732;2022-12-16T14:27:18;6.17;;;3.63;;
19687;SDS011;9993;52.008;4.732;2022-12-16T14:30:13;4.27;;;3.53;;
19687;SDS011;9993;52.008;4.732;2022-12-16T14:32:58;10.70;;;7.60;;
19687;SDS011;9993;52.008;4.732;2022-12-16T14:35:47;23.83;;;17.03;;
19687;SDS011;9993;52.008;4.732;2022-12-16T14:38:34;7.10;;;6.10;;
19687;SDS011;9993;52.008;4.732;2022-12-16T14:41:19;4.17;;;3.70;;
19687;SDS011;9993;52.008;4.732;2022-12-16T14:44:04;8.77;;;4.40;;
19687;SDS011;9993;52.008;4.732;2022-12-16T14:46:49;3.53;;;3.23;;
19687;SDS011;9993;52.008;4.732;2022-12-16T14:49:35;7.47;;;3.80;;
19687;SDS011;9993;52.008;4.732;2022-12-16T14:52:20;4.53;;;4.13;;
19687;SDS011;9993;52.008;4.732;2022-12-16T14:55:11;5.43;;;4.93;;
19687;SDS011;9993;52.008;4.732;2022-12-16T14:58:09;5.13;;;4.60;;
19687;SDS011;9993;52.008;4.732;2022-12-16T15:00:56;6.57;;;4.87;;
19687;SDS011;9993;52.008;4.732;2022-12-16T15:03:41;7.70;;;5.87;;
19687;SDS011;9993;52.008;4.732;2022-12-16T15:06:31;5.00;;;4.53;;
19687;SDS011;9993;52.008;4.732;2022-12-16T15:09:20;5.80;;;4.47;;
19687;SDS011;9993;52.008;4.732;2022-12-16T15:12:04;4.03;;;3.63;;
19687;SDS011;9993;52.008;4.732;2022-12-16T15:14:49;5.10;;;4.60;;
19687;SDS011;9993;52.008;4.732;2022-12-16T15:17:50;5.67;;;4.50;;
19687;SDS011;9993;52.008;4.732;2022-12-16T15:20:35;4.23;;;3.93;;
19687;SDS011;9993;52.008;4.732;2022-12-16T15:23:21;5.53;;;5.03;;
19687;SDS011;9993;52.008;4.732;2022-12-16T15:26:06;7.00;;;4.50;;
19687;SDS011;9993;52.008;4.732;2022-12-16T15:28:50;4.23;;;3.60;;
19687;SDS011;9993;52.008;4.732;2022-12-16T15:31:35;6.10;;;3.77;;
19687;SDS011;9993;52.008;4.732;2022-12-16T15:37:40;6.20;;;5.43;;
19687;SDS011;9993;52.008;4.732;2022-12-16T15:40:18;7.13;;;5.57;;
19687;SDS011;9993;52.008;4.732;2022-12-16T15:43:02;9.77;;;6.30;;
19687;SDS011;9993;52.008;4.732;2022-12-16T15:45:49;12.60;;;6.50;;
19687;SDS011;9993;52.008;4.732;2022-12-16T15:48:33;9.93;;;6.90;;
19687;SDS011;9993;52.008;4.732;2022-12-16T15:51:21;12.20;;;6.43;;
19687;SDS011;9993;52.008;4.732;2022-12-16T15:54:11;8.00;;;6.17;;
19687;SDS011;9993;52.008;4.732;2022-12-16T15:56:56;12.53;;;7.50;;
19687;SDS011;9993;52.008;4.732;2022-12-16T15:59:50;7.63;;;6.37;;
19687;SDS011;9993;52.008;4.732;2022-12-16T16:02:35;9.20;;;6.90;;
19687;SDS011;9993;52.008;4.732;2022-12-16T16:05:20;10.33;;;6.30;;
19687;SDS011;9993;52.008;4.732;2022-12-16T16:08:04;9.80;;;7.03;;
19687;SDS011;9993;52.008;4.732;2022-12-16T16:10:48;12.50;;;7.20;;
19687;SDS011;9993;52.008;4.732;2022-12-16T16:13:32;9.27;;;7.10;;
19687;SDS011;9993;52.008;4.732;2022-12-16T16:16:16;13.07;;;8.90;;
19687;SDS011;9993;52.008;4.732;2022-12-16T16:19:00;10.23;;;8.20;;
19687;SDS011;9993;52.008;4.732;2022-12-16T16:21:44;8.93;;;7.80;;
19687;SDS011;9993;52.008;4.732;2022-12-16T16:24:32;8.10;;;6.20;;
19687;SDS011;9993;52.008;4.732;2022-12-16T16:27:16;11.33;;;6.50;;
19687;SDS011;9993;52.008;4.732;2022-12-16T16:30:01;9.07;;;7.37;;
19687;SDS011;9993;52.008;4.732;2022-12-16T16:32:45;8.83;;;6.87;;
19687;SDS011;9993;52.008;4.732;2022-12-16T16:35:30;8.63;;;6.57;;
19687;SDS011;9993;52.008;4.732;2022-12-16T16:38:15;11.90;;;7.00;;
19687;SDS011;9993;52.008;4.732;2022-12-16T16:40:59;9.20;;;7.23;;
19687;SDS011;9993;52.008;4.732;2022-12-16T16:43:43;11.30;;;7.40;;
19687;SDS011;9993;52.008;4.732;2022-12-16T16:46:37;13.10;;;7.90;;
19687;SDS011;9993;52.008;4.732;2022-12-16T16:49:22;11.53;;;7.30;;
19687;SDS011;9993;52.008;4.732;2022-12-16T16:52:09;10.60;;;8.30;;
19687;SDS011;9993;52.008;4.732;2022-12-16T16:54:52;12.30;;;8.70;;
19687;SDS011;9993;52.008;4.732;2022-12-16T16:57:36;11.00;;;9.17;;
19687;SDS011;9993;52.008;4.732;2022-12-16T17:00:20;10.87;;;7.70;;
19687;SDS011;9993;52.008;4.732;2022-12-16T17:03:04;9.73;;;7.13;;
19687;SDS011;9993;52.008;4.732;2022-12-16T17:05:48;10.00;;;6.80;;
19687;SDS011;9993;52.008;4.732;2022-12-16T17:08:32;7.43;;;6.63;;
19687;SDS011;9993;52.008;4.732;2022-12-16T17:11:17;11.43;;;7.87;;
19687;SDS011;9993;52.008;4.732;2022-12-16T17:14:01;10.03;;;8.00;;
19687;SDS011;9993;52.008;4.732;2022-12-16T17:16:45;11.20;;;9.20;;
19687;SDS011;9993;52.008;4.732;2022-12-16T17:19:29;12.80;;;9.23;;
19687;SDS011;9993;52.008;4.732;2022-12-16T17:22:13;14.53;;;9.30;;
19687;SDS011;9993;52.008;4.732;2022-12-16T17:24:57;13.37;;;9.23;;
19687;SDS011;9993;52.008;4.732;2022-12-16T17:27:44;12.63;;;8.70;;
19687;SDS011;9993;52.008;4.732;2022-12-16T17:30:29;12.17;;;8.93;;
19687;SDS011;9993;52.008;4.732;2022-12-16T17:33:13;17.83;;;13.10;;
19687;SDS011;9993;52.008;4.732;2022-12-16T17:35:57;23.43;;;16.40;;
19687;SDS011;9993;52.008;4.732;2022-12-16T17:38:42;20.33;;;13.60;;
19687;SDS011;9993;52.008;4.732;2022-12-16T17:41:26;31.20;;;18.23;;
19687;SDS011;9993;52.008;4.732;2022-12-16T17:44:10;31.37;;;20.37;;
19687;SDS011;9993;52.008;4.732;2022-12-16T17:46:54;36.73;;;23.80;;
19687;SDS011;9993;52.008;4.732;2022-12-16T17:49:38;34.43;;;20.70;;
19687;SDS011;9993;52.008;4.732;2022-12-16T17:52:22;30.03;;;19.13;;
19687;SDS011;9993;52.008;4.732;2022-12-16T17:55:06;26.13;;;17.47;;
19687;SDS011;9993;52.008;4.732;2022-12-16T17:57:50;27.97;;;16.97;;
19687;SDS011;9993;52.008;4.732;2022-12-16T18:00:34;27.23;;;16.33;;
19687;SDS011;9993;52.008;4.732;2022-12-16T18:03:18;20.33;;;14.13;;